sensor_id;sensor_type;location;lat;lon;timestamp;P1;durP1;ratioP1;P2;durP2;ratioP2
18501;SDS011;68437;52.236;5.710;2023-12-22T00:00:22;19.80;;;2.10;;
18501;SDS011;68437;52.236;5.710;2023-12-22T00:02:49;22.35;;;2.40;;
18501;SDS011;68437;52.236;5.710;2023-12-22T00:05:16;16.73;;;1.70;;
18501;SDS011;68437;52.236;5.710;2023-12-22T00:07:43;23.45;;;1.98;;
18501;SDS011;68437;52.236;5.710;2023-12-22T00:10:10;17.23;;;2.03;;
18501;SDS011;68437;52.236;5.710;2023-12-22T00:12:39;21.80;;;2.30;;
18501;SDS011;68437;52.236;5.710;2023-12-22T00:15:06;15.25;;;2.25;;
18501;SDS011;68437;52.236;5.710;2023-12-22T00:17:33;15.38;;;2.08;;
18501;SDS011;68437;52.236;5.710;2023-12-22T00:20:00;21.33;;;2.43;;
18501;SDS011;68437;52.236;5.710;2023-12-22T00:22:28;19.50;;;2.20;;
18501;SDS011;68437;52.236;5.710;2023-12-22T00:24:55;22.17;;;2.25;;
18501;SDS011;68437;52.236;5.710;2023-12-22T00:27:21;14.32;;;1.70;;
18501;SDS011;68437;52.236;5.710;2023-12-22T00:29:49;16.03;;;1.87;;
18501;SDS011;68437;52.236;5.710;2023-12-22T00:32:16;13.57;;;1.50;;
18501;SDS011;68437;52.236;5.710;2023-12-22T00:34:43;13.45;;;2.40;;
18501;SDS011;68437;52.236;5.710;2023-12-22T00:37:10;15.02;;;1.77;;
18501;SDS011;68437;52.236;5.710;2023-12-22T00:39:37;10.02;;;1.30;;
18501;SDS011;68437;52.236;5.710;2023-12-22T00:42:04;10.70;;;1.40;;
18501;SDS011;68437;52.236;5.710;2023-12-22T00:44:34;9.52;;;1.33;;
18501;SDS011;68437;52.236;5.710;2023-12-22T00:47:02;9.25;;;0.95;;
18501;SDS011;68437;52.236;5.710;2023-12-22T00:49:29;13.90;;;1.15;;
18501;SDS011;68437;52.236;5.710;2023-12-22T00:51:56;9.95;;;1.20;;
18501;SDS011;68437;52.236;5.710;2023-12-22T00:54:22;18.33;;;1.80;;
18501;SDS011;68437;52.236;5.710;2023-12-22T00:56:50;13.80;;;1.50;;
18501;SDS011;68437;52.236;5.710;2023-12-22T00:59:16;10.32;;;1.48;;
18501;SDS011;68437;52.236;5.710;2023-12-22T01:01:44;13.25;;;1.40;;
18501;SDS011;68437;52.236;5.710;2023-12-22T01:04:12;10.00;;;1.25;;
18501;SDS011;68437;52.236;5.710;2023-12-22T01:06:42;15.27;;;1.60;;
18501;SDS011;68437;52.236;5.710;2023-12-22T01:09:08;11.20;;;1.42;;
18501;SDS011;68437;52.236;5.710;2023-12-22T01:11:35;15.80;;;1.77;;
18501;SDS011;68437;52.236;5.710;2023-12-22T01:14:02;13.30;;;1.57;;
18501;SDS011;68437;52.236;5.710;2023-12-22T01:16:29;10.60;;;1.27;;
18501;SDS011;68437;52.236;5.710;2023-12-22T01:18:55;11.38;;;1.50;;
18501;SDS011;68437;52.236;5.710;2023-12-22T01:21:29;12.75;;;1.58;;
18501;SDS011;68437;52.236;5.710;2023-12-22T01:23:56;10.67;;;1.80;;
18501;SDS011;68437;52.236;5.710;2023-12-22T01:26:24;11.18;;;1.50;;
18501;SDS011;68437;52.236;5.710;2023-12-22T01:28:50;13.88;;;1.48;;
18501;SDS011;68437;52.236;5.710;2023-12-22T01:31:17;10.32;;;1.13;;
18501;SDS011;68437;52.236;5.710;2023-12-22T01:33:44;9.03;;;1.23;;
18501;SDS011;68437;52.236;5.710;2023-12-22T01:36:13;9.95;;;1.20;;
18501;SDS011;68437;52.236;5.710;2023-12-22T01:38:43;7.10;;;1.25;;
18501;SDS011;68437;52.236;5.710;2023-12-22T01:41:10;7.03;;;1.23;;
18501;SDS011;68437;52.236;5.710;2023-12-22T01:43:37;8.68;;;1.05;;
18501;SDS011;68437;52.236;5.710;2023-12-22T01:46:04;9.80;;;1.23;;
18501;SDS011;68437;52.236;5.710;2023-12-22T01:48:32;9.77;;;1.40;;
18501;SDS011;68437;52.236;5.710;2023-12-22T01:51:00;15.50;;;1.40;;
18501;SDS011;68437;52.236;5.710;2023-12-22T01:53:30;13.00;;;1.90;;
18501;SDS011;68437;52.236;5.710;2023-12-22T01:56:00;12.07;;;1.48;;
18501;SDS011;68437;52.236;5.710;2023-12-22T01:58:28;14.32;;;1.73;;
18501;SDS011;68437;52.236;5.710;2023-12-22T02:00:56;12.80;;;1.80;;
18501;SDS011;68437;52.236;5.710;2023-12-22T02:03:23;17.57;;;2.03;;
18501;SDS011;68437;52.236;5.710;2023-12-22T02:05:50;19.27;;;1.90;;
18501;SDS011;68437;52.236;5.710;2023-12-22T02:08:18;21.83;;;1.97;;
18501;SDS011;68437;52.236;5.710;2023-12-22T02:10:46;18.42;;;2.08;;
18501;SDS011;68437;52.236;5.710;2023-12-22T02:13:14;18.98;;;2.20;;
18501;SDS011;68437;52.236;5.710;2023-12-22T02:15:41;19.20;;;2.20;;
18501;SDS011;68437;52.236;5.710;2023-12-22T02:18:12;16.73;;;2.23;;
18501;SDS011;68437;52.236;5.710;2023-12-22T02:20:42;16.00;;;2.00;;
18501;SDS011;68437;52.236;5.710;2023-12-22T02:23:11;12.40;;;2.30;;
18501;SDS011;68437;52.236;5.710;2023-12-22T02:25:38;23.30;;;2.40;;
18501;SDS011;68437;52.236;5.710;2023-12-22T02:28:05;17.97;;;2.30;;
18501;SDS011;68437;52.236;5.710;2023-12-22T02:30:38;18.37;;;2.27;;
18501;SDS011;68437;52.236;5.710;2023-12-22T02:33:09;19.42;;;2.33;;
18501;SDS011;68437;52.236;5.710;2023-12-22T02:35:38;22.98;;;2.40;;
18501;SDS011;68437;52.236;5.710;2023-12-22T02:38:11;22.10;;;2.90;;
18501;SDS011;68437;52.236;5.710;2023-12-22T02:40:39;26.50;;;2.22;;
18501;SDS011;68437;52.236;5.710;2023-12-22T02:43:06;14.95;;;2.13;;
18501;SDS011;68437;52.236;5.710;2023-12-22T02:45:33;24.43;;;3.30;;
18501;SDS011;68437;52.236;5.710;2023-12-22T02:48:03;22.90;;;2.50;;
18501;SDS011;68437;52.236;5.710;2023-12-22T02:50:30;14.90;;;1.70;;
18501;SDS011;68437;52.236;5.710;2023-12-22T02:52:57;11.57;;;1.53;;
18501;SDS011;68437;52.236;5.710;2023-12-22T02:55:25;8.13;;;1.40;;
18501;SDS011;68437;52.236;5.710;2023-12-22T02:57:52;11.27;;;1.23;;
18501;SDS011;68437;52.236;5.710;2023-12-22T03:00:19;12.73;;;1.43;;
18501;SDS011;68437;52.236;5.710;2023-12-22T03:02:49;10.13;;;1.40;;
18501;SDS011;68437;52.236;5.710;2023-12-22T03:05:16;9.90;;;1.17;;
18501;SDS011;68437;52.236;5.710;2023-12-22T03:07:42;12.47;;;1.17;;
18501;SDS011;68437;52.236;5.710;2023-12-22T03:10:09;9.47;;;1.47;;
18501;SDS011;68437;52.236;5.710;2023-12-22T03:12:37;11.67;;;1.23;;
18501;SDS011;68437;52.236;5.710;2023-12-22T03:15:05;13.10;;;1.57;;
18501;SDS011;68437;52.236;5.710;2023-12-22T03:17:32;16.17;;;1.50;;
18501;SDS011;68437;52.236;5.710;2023-12-22T03:19:59;12.10;;;1.80;;
18501;SDS011;68437;52.236;5.710;2023-12-22T03:22:26;11.57;;;1.70;;
18501;SDS011;68437;52.236;5.710;2023-12-22T03:24:53;13.90;;;1.73;;
18501;SDS011;68437;52.236;5.710;2023-12-22T03:27:19;12.57;;;1.53;;
18501;SDS011;68437;52.236;5.710;2023-12-22T03:29:47;16.30;;;1.60;;
18501;SDS011;68437;52.236;5.710;2023-12-22T03:32:14;15.60;;;1.97;;
18501;SDS011;68437;52.236;5.710;2023-12-22T03:34:44;20.30;;;1.50;;
18501;SDS011;68437;52.236;5.710;2023-12-22T03:37:11;12.00;;;1.50;;
18501;SDS011;68437;52.236;5.710;2023-12-22T03:39:38;10.67;;;1.30;;
18501;SDS011;68437;52.236;5.710;2023-12-22T03:42:04;13.93;;;1.90;;
18501;SDS011;68437;52.236;5.710;2023-12-22T03:44:31;15.77;;;1.97;;
18501;SDS011;68437;52.236;5.710;2023-12-22T03:47:00;12.00;;;1.90;;
18501;SDS011;68437;52.236;5.710;2023-12-22T03:49:26;17.07;;;1.70;;
18501;SDS011;68437;52.236;5.710;2023-12-22T03:51:53;12.97;;;1.60;;
18501;SDS011;68437;52.236;5.710;2023-12-22T03:54:23;15.67;;;1.70;;
18501;SDS011;68437;52.236;5.710;2023-12-22T03:56:49;14.10;;;1.60;;
18501;SDS011;68437;52.236;5.710;2023-12-22T03:59:16;12.53;;;1.73;;
18501;SDS011;68437;52.236;5.710;2023-12-22T04:01:44;17.00;;;2.17;;
18501;SDS011;68437;52.236;5.710;2023-12-22T04:04:17;13.90;;;1.60;;
18501;SDS011;68437;52.236;5.710;2023-12-22T04:06:44;12.63;;;1.55;;
18501;SDS011;68437;52.236;5.710;2023-12-22T04:09:10;11.47;;;1.80;;
18501;SDS011;68437;52.236;5.710;2023-12-22T04:11:39;15.50;;;2.13;;
18501;SDS011;68437;52.236;5.710;2023-12-22T04:14:06;12.37;;;2.10;;
18501;SDS011;68437;52.236;5.710;2023-12-22T04:16:35;25.27;;;2.00;;
18501;SDS011;68437;52.236;5.710;2023-12-22T04:19:03;17.57;;;1.97;;
18501;SDS011;68437;52.236;5.710;2023-12-22T04:21:31;21.70;;;2.17;;
18501;SDS011;68437;52.236;5.710;2023-12-22T04:23:58;21.27;;;2.67;;
18501;SDS011;68437;52.236;5.710;2023-12-22T04:26:25;24.87;;;2.60;;
18501;SDS011;68437;52.236;5.710;2023-12-22T04:28:51;20.40;;;2.10;;
18501;SDS011;68437;52.236;5.710;2023-12-22T04:31:18;25.80;;;2.50;;
18501;SDS011;68437;52.236;5.710;2023-12-22T04:33:45;19.63;;;2.33;;
18501;SDS011;68437;52.236;5.710;2023-12-22T04:36:12;28.77;;;2.87;;
18501;SDS011;68437;52.236;5.710;2023-12-22T04:38:42;27.85;;;2.85;;
18501;SDS011;68437;52.236;5.710;2023-12-22T04:41:09;29.77;;;2.90;;
18501;SDS011;68437;52.236;5.710;2023-12-22T04:43:36;27.27;;;2.87;;
18501;SDS011;68437;52.236;5.710;2023-12-22T04:46:03;23.07;;;2.70;;
18501;SDS011;68437;52.236;5.710;2023-12-22T04:48:29;25.07;;;2.50;;
18501;SDS011;68437;52.236;5.710;2023-12-22T04:50:58;24.23;;;3.13;;
18501;SDS011;68437;52.236;5.710;2023-12-22T04:53:25;25.17;;;2.57;;
18501;SDS011;68437;52.236;5.710;2023-12-22T04:55:53;22.40;;;2.60;;
18501;SDS011;68437;52.236;5.710;2023-12-22T04:58:19;25.50;;;2.60;;
18501;SDS011;68437;52.236;5.710;2023-12-22T05:00:47;31.30;;;3.20;;
18501;SDS011;68437;52.236;5.710;2023-12-22T05:03:14;21.55;;;2.28;;
18501;SDS011;68437;52.236;5.710;2023-12-22T05:05:41;26.40;;;2.90;;
18501;SDS011;68437;52.236;5.710;2023-12-22T05:08:08;21.00;;;2.60;;
18501;SDS011;68437;52.236;5.710;2023-12-22T05:10:34;26.03;;;3.10;;
18501;SDS011;68437;52.236;5.710;2023-12-22T05:13:03;28.40;;;2.83;;
18501;SDS011;68437;52.236;5.710;2023-12-22T05:15:29;18.07;;;2.80;;
18501;SDS011;68437;52.236;5.710;2023-12-22T05:17:56;25.65;;;2.55;;
18501;SDS011;68437;52.236;5.710;2023-12-22T05:20:23;26.13;;;2.40;;
18501;SDS011;68437;52.236;5.710;2023-12-22T05:22:50;23.80;;;2.60;;
18501;SDS011;68437;52.236;5.710;2023-12-22T05:25:17;22.10;;;2.73;;
18501;SDS011;68437;52.236;5.710;2023-12-22T05:27:43;22.90;;;2.60;;
18501;SDS011;68437;52.236;5.710;2023-12-22T05:30:12;23.17;;;2.73;;
18501;SDS011;68437;52.236;5.710;2023-12-22T05:32:40;31.97;;;2.67;;
18501;SDS011;68437;52.236;5.710;2023-12-22T05:35:07;34.40;;;2.90;;
18501;SDS011;68437;52.236;5.710;2023-12-22T05:37:35;33.77;;;2.97;;
18501;SDS011;68437;52.236;5.710;2023-12-22T05:40:02;37.23;;;3.83;;
18501;SDS011;68437;52.236;5.710;2023-12-22T05:42:31;29.30;;;3.17;;
18501;SDS011;68437;52.236;5.710;2023-12-22T05:44:58;28.17;;;3.35;;
18501;SDS011;68437;52.236;5.710;2023-12-22T05:47:26;30.63;;;3.53;;
18501;SDS011;68437;52.236;5.710;2023-12-22T05:49:53;29.27;;;3.05;;
18501;SDS011;68437;52.236;5.710;2023-12-22T05:52:20;31.20;;;3.17;;
18501;SDS011;68437;52.236;5.710;2023-12-22T05:54:46;54.73;;;3.23;;
18501;SDS011;68437;52.236;5.710;2023-12-22T05:57:13;34.30;;;3.33;;
18501;SDS011;68437;52.236;5.710;2023-12-22T05:59:40;25.75;;;2.83;;
18501;SDS011;68437;52.236;5.710;2023-12-22T06:02:07;32.65;;;3.30;;
18501;SDS011;68437;52.236;5.710;2023-12-22T06:04:35;32.67;;;3.97;;
18501;SDS011;68437;52.236;5.710;2023-12-22T06:07:02;34.10;;;3.45;;
18501;SDS011;68437;52.236;5.710;2023-12-22T06:09:29;29.53;;;3.53;;
18501;SDS011;68437;52.236;5.710;2023-12-22T06:11:58;38.53;;;3.60;;
18501;SDS011;68437;52.236;5.710;2023-12-22T06:14:26;37.42;;;3.75;;
18501;SDS011;68437;52.236;5.710;2023-12-22T06:16:53;40.47;;;3.95;;
18501;SDS011;68437;52.236;5.710;2023-12-22T06:19:22;31.08;;;3.10;;
18501;SDS011;68437;52.236;5.710;2023-12-22T06:21:54;31.98;;;3.65;;
18501;SDS011;68437;52.236;5.710;2023-12-22T06:24:22;24.07;;;3.13;;
18501;SDS011;68437;52.236;5.710;2023-12-22T06:26:49;39.13;;;3.70;;
18501;SDS011;68437;52.236;5.710;2023-12-22T06:29:15;31.80;;;3.27;;
18501;SDS011;68437;52.236;5.710;2023-12-22T06:31:41;31.17;;;3.47;;
18501;SDS011;68437;52.236;5.710;2023-12-22T06:34:08;34.45;;;3.05;;
18501;SDS011;68437;52.236;5.710;2023-12-22T06:36:35;28.67;;;2.88;;
18501;SDS011;68437;52.236;5.710;2023-12-22T06:39:03;23.60;;;2.60;;
18501;SDS011;68437;52.236;5.710;2023-12-22T06:41:30;18.00;;;2.37;;
18501;SDS011;68437;52.236;5.710;2023-12-22T06:43:57;26.02;;;2.20;;
18501;SDS011;68437;52.236;5.710;2023-12-22T06:46:25;19.50;;;2.53;;
18501;SDS011;68437;52.236;5.710;2023-12-22T06:48:52;18.85;;;2.85;;
18501;SDS011;68437;52.236;5.710;2023-12-22T06:51:20;26.17;;;3.77;;
18501;SDS011;68437;52.236;5.710;2023-12-22T06:53:47;17.20;;;2.55;;
18501;SDS011;68437;52.236;5.710;2023-12-22T06:56:17;30.50;;;4.50;;
18501;SDS011;68437;52.236;5.710;2023-12-22T06:58:44;39.28;;;6.35;;
18501;SDS011;68437;52.236;5.710;2023-12-22T07:01:12;28.83;;;3.23;;
18501;SDS011;68437;52.236;5.710;2023-12-22T07:03:43;20.60;;;3.10;;
18501;SDS011;68437;52.236;5.710;2023-12-22T07:06:10;29.20;;;3.10;;
18501;SDS011;68437;52.236;5.710;2023-12-22T07:08:37;35.28;;;3.42;;
18501;SDS011;68437;52.236;5.710;2023-12-22T07:11:04;35.85;;;4.20;;
18501;SDS011;68437;52.236;5.710;2023-12-22T07:13:33;29.52;;;3.85;;
18501;SDS011;68437;52.236;5.710;2023-12-22T07:16:00;22.58;;;3.13;;
18501;SDS011;68437;52.236;5.710;2023-12-22T07:18:27;32.10;;;3.05;;
18501;SDS011;68437;52.236;5.710;2023-12-22T07:20:55;36.90;;;4.22;;
18501;SDS011;68437;52.236;5.710;2023-12-22T07:23:28;27.10;;;3.17;;
18501;SDS011;68437;52.236;5.710;2023-12-22T07:25:55;40.72;;;3.72;;
18501;SDS011;68437;52.236;5.710;2023-12-22T07:28:21;31.37;;;3.53;;
18501;SDS011;68437;52.236;5.710;2023-12-22T07:30:49;27.27;;;3.78;;
18501;SDS011;68437;52.236;5.710;2023-12-22T07:33:16;25.48;;;3.67;;
18501;SDS011;68437;52.236;5.710;2023-12-22T07:35:43;36.90;;;4.68;;
18501;SDS011;68437;52.236;5.710;2023-12-22T07:38:10;34.50;;;4.70;;
18501;SDS011;68437;52.236;5.710;2023-12-22T07:40:37;37.78;;;5.10;;
18501;SDS011;68437;52.236;5.710;2023-12-22T07:43:03;36.83;;;4.75;;
18501;SDS011;68437;52.236;5.710;2023-12-22T07:45:30;35.58;;;5.95;;
18501;SDS011;68437;52.236;5.710;2023-12-22T07:47:58;32.85;;;4.25;;
18501;SDS011;68437;52.236;5.710;2023-12-22T07:50:25;29.50;;;5.13;;
18501;SDS011;68437;52.236;5.710;2023-12-22T07:52:52;35.08;;;6.03;;
18501;SDS011;68437;52.236;5.710;2023-12-22T07:55:19;37.40;;;4.95;;
18501;SDS011;68437;52.236;5.710;2023-12-22T07:57:46;38.65;;;5.45;;
18501;SDS011;68437;52.236;5.710;2023-12-22T08:00:13;45.42;;;6.22;;
18501;SDS011;68437;52.236;5.710;2023-12-22T08:02:42;42.88;;;6.10;;
18501;SDS011;68437;52.236;5.710;2023-12-22T08:05:10;43.53;;;5.80;;
18501;SDS011;68437;52.236;5.710;2023-12-22T08:07:39;38.05;;;5.57;;
18501;SDS011;68437;52.236;5.710;2023-12-22T08:10:09;26.65;;;3.25;;
18501;SDS011;68437;52.236;5.710;2023-12-22T08:12:36;21.70;;;3.08;;
18501;SDS011;68437;52.236;5.710;2023-12-22T08:15:03;26.75;;;4.55;;
18501;SDS011;68437;52.236;5.710;2023-12-22T08:17:31;24.67;;;3.20;;
18501;SDS011;68437;52.236;5.710;2023-12-22T08:19:58;19.90;;;2.63;;
18501;SDS011;68437;52.236;5.710;2023-12-22T08:22:26;23.50;;;4.05;;
18501;SDS011;68437;52.236;5.710;2023-12-22T08:24:53;25.85;;;3.40;;
18501;SDS011;68437;52.236;5.710;2023-12-22T08:27:20;26.55;;;3.45;;
18501;SDS011;68437;52.236;5.710;2023-12-22T08:29:47;31.60;;;3.65;;
18501;SDS011;68437;52.236;5.710;2023-12-22T08:32:13;31.65;;;3.88;;
18501;SDS011;68437;52.236;5.710;2023-12-22T08:34:40;27.52;;;3.80;;
18501;SDS011;68437;52.236;5.710;2023-12-22T08:37:07;25.52;;;3.72;;
18501;SDS011;68437;52.236;5.710;2023-12-22T08:39:35;34.08;;;4.55;;
18501;SDS011;68437;52.236;5.710;2023-12-22T08:42:02;26.48;;;3.03;;
18501;SDS011;68437;52.236;5.710;2023-12-22T08:44:29;21.80;;;4.20;;
18501;SDS011;68437;52.236;5.710;2023-12-22T08:46:56;39.50;;;4.40;;
18501;SDS011;68437;52.236;5.710;2023-12-22T08:49:23;33.80;;;4.35;;
18501;SDS011;68437;52.236;5.710;2023-12-22T08:51:49;34.92;;;4.28;;
18501;SDS011;68437;52.236;5.710;2023-12-22T08:54:16;34.13;;;7.57;;
18501;SDS011;68437;52.236;5.710;2023-12-22T08:56:44;37.15;;;4.93;;
18501;SDS011;68437;52.236;5.710;2023-12-22T08:59:13;27.90;;;4.25;;
18501;SDS011;68437;52.236;5.710;2023-12-22T09:01:40;42.92;;;4.50;;
18501;SDS011;68437;52.236;5.710;2023-12-22T09:04:07;38.35;;;4.40;;
18501;SDS011;68437;52.236;5.710;2023-12-22T09:06:36;40.55;;;4.40;;
18501;SDS011;68437;52.236;5.710;2023-12-22T09:09:03;35.20;;;4.53;;
18501;SDS011;68437;52.236;5.710;2023-12-22T09:11:31;47.85;;;5.35;;
18501;SDS011;68437;52.236;5.710;2023-12-22T09:13:59;37.33;;;4.78;;
18501;SDS011;68437;52.236;5.710;2023-12-22T09:16:26;35.05;;;4.35;;
18501;SDS011;68437;52.236;5.710;2023-12-22T09:18:53;39.47;;;4.63;;
18501;SDS011;68437;52.236;5.710;2023-12-22T09:21:19;43.53;;;4.78;;
18501;SDS011;68437;52.236;5.710;2023-12-22T09:23:46;41.85;;;6.90;;
18501;SDS011;68437;52.236;5.710;2023-12-22T09:26:15;42.33;;;6.82;;
18501;SDS011;68437;52.236;5.710;2023-12-22T09:28:43;42.03;;;5.45;;
18501;SDS011;68437;52.236;5.710;2023-12-22T09:31:12;36.95;;;5.18;;
18501;SDS011;68437;52.236;5.710;2023-12-22T09:33:39;41.60;;;5.82;;
18501;SDS011;68437;52.236;5.710;2023-12-22T09:36:06;49.60;;;7.15;;
18501;SDS011;68437;52.236;5.710;2023-12-22T09:38:34;38.55;;;6.40;;
18501;SDS011;68437;52.236;5.710;2023-12-22T09:41:01;41.55;;;5.95;;
18501;SDS011;68437;52.236;5.710;2023-12-22T09:43:29;36.65;;;5.65;;
18501;SDS011;68437;52.236;5.710;2023-12-22T09:46:01;33.95;;;5.15;;
18501;SDS011;68437;52.236;5.710;2023-12-22T09:48:33;32.20;;;5.05;;
18501;SDS011;68437;52.236;5.710;2023-12-22T09:51:04;35.40;;;4.97;;
18501;SDS011;68437;52.236;5.710;2023-12-22T09:53:32;31.58;;;3.78;;
18501;SDS011;68437;52.236;5.710;2023-12-22T09:56:01;20.48;;;3.45;;
18501;SDS011;68437;52.236;5.710;2023-12-22T09:58:29;25.73;;;3.80;;
18501;SDS011;68437;52.236;5.710;2023-12-22T10:01:00;21.65;;;3.55;;
18501;SDS011;68437;52.236;5.710;2023-12-22T10:03:30;21.15;;;3.00;;
18501;SDS011;68437;52.236;5.710;2023-12-22T10:06:00;19.85;;;2.90;;
18501;SDS011;68437;52.236;5.710;2023-12-22T10:08:27;20.60;;;2.90;;
18501;SDS011;68437;52.236;5.710;2023-12-22T10:10:54;13.95;;;2.70;;
18501;SDS011;68437;52.236;5.710;2023-12-22T10:13:22;14.02;;;2.35;;
18501;SDS011;68437;52.236;5.710;2023-12-22T10:15:49;14.27;;;2.67;;
18501;SDS011;68437;52.236;5.710;2023-12-22T10:18:16;15.20;;;2.65;;
18501;SDS011;68437;52.236;5.710;2023-12-22T10:20:43;13.40;;;2.92;;
18501;SDS011;68437;52.236;5.710;2023-12-22T10:23:13;20.80;;;3.88;;
18501;SDS011;68437;52.236;5.710;2023-12-22T10:25:40;21.20;;;3.42;;
18501;SDS011;68437;52.236;5.710;2023-12-22T10:28:09;11.45;;;2.85;;
18501;SDS011;68437;52.236;5.710;2023-12-22T10:30:38;19.13;;;3.40;;
18501;SDS011;68437;52.236;5.710;2023-12-22T10:33:06;30.33;;;7.53;;
18501;SDS011;68437;52.236;5.710;2023-12-22T10:35:33;23.38;;;4.75;;
18501;SDS011;68437;52.236;5.710;2023-12-22T10:38:00;17.40;;;4.20;;
18501;SDS011;68437;52.236;5.710;2023-12-22T10:40:28;22.65;;;4.40;;
18501;SDS011;68437;52.236;5.710;2023-12-22T10:42:56;25.58;;;4.85;;
18501;SDS011;68437;52.236;5.710;2023-12-22T10:45:22;22.83;;;4.07;;
18501;SDS011;68437;52.236;5.710;2023-12-22T10:47:49;25.83;;;4.05;;
18501;SDS011;68437;52.236;5.710;2023-12-22T10:50:18;24.55;;;4.72;;
18501;SDS011;68437;52.236;5.710;2023-12-22T10:52:48;21.27;;;3.97;;
18501;SDS011;68437;52.236;5.710;2023-12-22T10:55:16;24.52;;;3.75;;
18501;SDS011;68437;52.236;5.710;2023-12-22T10:57:47;24.40;;;3.70;;
18501;SDS011;68437;52.236;5.710;2023-12-22T11:00:15;22.75;;;3.08;;
18501;SDS011;68437;52.236;5.710;2023-12-22T11:02:42;26.65;;;3.47;;
18501;SDS011;68437;52.236;5.710;2023-12-22T11:05:13;20.45;;;3.85;;
18501;SDS011;68437;52.236;5.710;2023-12-22T11:07:42;21.50;;;3.42;;
18501;SDS011;68437;52.236;5.710;2023-12-22T11:10:14;25.95;;;3.17;;
18501;SDS011;68437;52.236;5.710;2023-12-22T11:12:44;20.73;;;3.30;;
18501;SDS011;68437;52.236;5.710;2023-12-22T11:15:14;22.95;;;3.85;;
18501;SDS011;68437;52.236;5.710;2023-12-22T11:17:45;20.85;;;3.35;;
18501;SDS011;68437;52.236;5.710;2023-12-22T11:20:14;20.08;;;2.95;;
18501;SDS011;68437;52.236;5.710;2023-12-22T11:22:42;19.48;;;3.80;;
18501;SDS011;68437;52.236;5.710;2023-12-22T11:25:10;17.95;;;3.20;;
18501;SDS011;68437;52.236;5.710;2023-12-22T11:27:37;20.88;;;3.08;;
18501;SDS011;68437;52.236;5.710;2023-12-22T11:30:06;24.88;;;4.57;;
18501;SDS011;68437;52.236;5.710;2023-12-22T11:32:37;25.80;;;3.55;;
18501;SDS011;68437;52.236;5.710;2023-12-22T11:35:08;23.27;;;3.10;;
18501;SDS011;68437;52.236;5.710;2023-12-22T11:37:35;18.77;;;3.17;;
18501;SDS011;68437;52.236;5.710;2023-12-22T11:40:05;26.42;;;5.05;;
18501;SDS011;68437;52.236;5.710;2023-12-22T11:42:33;19.05;;;3.05;;
18501;SDS011;68437;52.236;5.710;2023-12-22T11:45:11;19.50;;;2.80;;
18501;SDS011;68437;52.236;5.710;2023-12-22T11:47:40;19.23;;;2.45;;
18501;SDS011;68437;52.236;5.710;2023-12-22T11:50:09;20.33;;;2.63;;
18501;SDS011;68437;52.236;5.710;2023-12-22T11:52:37;22.33;;;3.03;;
18501;SDS011;68437;52.236;5.710;2023-12-22T11:55:05;17.00;;;2.97;;
18501;SDS011;68437;52.236;5.710;2023-12-22T11:57:33;12.73;;;2.42;;
18501;SDS011;68437;52.236;5.710;2023-12-22T12:00:01;26.35;;;2.67;;
18501;SDS011;68437;52.236;5.710;2023-12-22T12:02:32;30.15;;;4.20;;
18501;SDS011;68437;52.236;5.710;2023-12-22T12:05:00;14.75;;;2.70;;
18501;SDS011;68437;52.236;5.710;2023-12-22T12:07:43;14.77;;;2.67;;
18501;SDS011;68437;52.236;5.710;2023-12-22T12:10:12;18.20;;;2.67;;
18501;SDS011;68437;52.236;5.710;2023-12-22T12:13:04;13.27;;;2.72;;
18501;SDS011;68437;52.236;5.710;2023-12-22T12:15:31;16.52;;;2.80;;
18501;SDS011;68437;52.236;5.710;2023-12-22T12:18:03;17.05;;;2.65;;
18501;SDS011;68437;52.236;5.710;2023-12-22T12:20:31;21.65;;;2.92;;
18501;SDS011;68437;52.236;5.710;2023-12-22T12:22:58;15.35;;;2.83;;
18501;SDS011;68437;52.236;5.710;2023-12-22T12:25:27;18.73;;;2.72;;
18501;SDS011;68437;52.236;5.710;2023-12-22T12:28:00;15.90;;;2.47;;
18501;SDS011;68437;52.236;5.710;2023-12-22T12:30:28;18.63;;;2.35;;
18501;SDS011;68437;52.236;5.710;2023-12-22T12:32:55;17.30;;;2.70;;
18501;SDS011;68437;52.236;5.710;2023-12-22T12:35:36;17.58;;;2.55;;
18501;SDS011;68437;52.236;5.710;2023-12-22T12:38:06;11.23;;;2.20;;
18501;SDS011;68437;52.236;5.710;2023-12-22T12:40:36;13.45;;;2.08;;
18501;SDS011;68437;52.236;5.710;2023-12-22T12:43:06;21.42;;;2.90;;
18501;SDS011;68437;52.236;5.710;2023-12-22T12:45:33;23.17;;;3.70;;
18501;SDS011;68437;52.236;5.710;2023-12-22T12:48:00;17.80;;;2.97;;
18501;SDS011;68437;52.236;5.710;2023-12-22T12:50:28;20.52;;;3.22;;
18501;SDS011;68437;52.236;5.710;2023-12-22T12:52:57;18.05;;;3.05;;
18501;SDS011;68437;52.236;5.710;2023-12-22T12:55:25;26.58;;;3.22;;
18501;SDS011;68437;52.236;5.710;2023-12-22T12:57:54;17.77;;;2.80;;
18501;SDS011;68437;52.236;5.710;2023-12-22T13:00:24;25.08;;;3.05;;
18501;SDS011;68437;52.236;5.710;2023-12-22T13:02:51;17.63;;;3.83;;
18501;SDS011;68437;52.236;5.710;2023-12-22T13:05:20;20.13;;;3.88;;
18501;SDS011;68437;52.236;5.710;2023-12-22T13:07:47;18.27;;;2.70;;
18501;SDS011;68437;52.236;5.710;2023-12-22T13:10:22;19.85;;;2.78;;
18501;SDS011;68437;52.236;5.710;2023-12-22T13:12:49;16.50;;;2.50;;
18501;SDS011;68437;52.236;5.710;2023-12-22T13:15:19;14.45;;;3.17;;
18501;SDS011;68437;52.236;5.710;2023-12-22T13:17:46;19.67;;;2.65;;
18501;SDS011;68437;52.236;5.710;2023-12-22T13:20:13;18.38;;;2.30;;
18501;SDS011;68437;52.236;5.710;2023-12-22T13:22:43;18.98;;;2.40;;
18501;SDS011;68437;52.236;5.710;2023-12-22T13:25:12;11.93;;;1.88;;
18501;SDS011;68437;52.236;5.710;2023-12-22T13:27:47;15.98;;;2.25;;
18501;SDS011;68437;52.236;5.710;2023-12-22T13:30:15;16.88;;;2.40;;
18501;SDS011;68437;52.236;5.710;2023-12-22T13:32:57;16.95;;;2.30;;
18501;SDS011;68437;52.236;5.710;2023-12-22T13:35:23;17.77;;;2.75;;
18501;SDS011;68437;52.236;5.710;2023-12-22T13:37:51;16.92;;;2.20;;
18501;SDS011;68437;52.236;5.710;2023-12-22T13:40:22;18.40;;;2.50;;
18501;SDS011;68437;52.236;5.710;2023-12-22T13:42:54;15.80;;;2.63;;
18501;SDS011;68437;52.236;5.710;2023-12-22T13:45:22;11.82;;;1.98;;
18501;SDS011;68437;52.236;5.710;2023-12-22T13:47:49;14.68;;;2.20;;
18501;SDS011;68437;52.236;5.710;2023-12-22T13:50:18;11.32;;;2.00;;
18501;SDS011;68437;52.236;5.710;2023-12-22T13:52:48;17.38;;;1.95;;
18501;SDS011;68437;52.236;5.710;2023-12-22T13:55:16;13.90;;;2.70;;
18501;SDS011;68437;52.236;5.710;2023-12-22T13:57:44;24.33;;;2.88;;
18501;SDS011;68437;52.236;5.710;2023-12-22T14:00:28;14.05;;;2.28;;
18501;SDS011;68437;52.236;5.710;2023-12-22T14:02:56;16.23;;;2.20;;
18501;SDS011;68437;52.236;5.710;2023-12-22T14:05:23;19.33;;;2.25;;
18501;SDS011;68437;52.236;5.710;2023-12-22T14:07:52;15.55;;;2.50;;
18501;SDS011;68437;52.236;5.710;2023-12-22T14:10:19;25.70;;;2.67;;
18501;SDS011;68437;52.236;5.710;2023-12-22T14:12:46;16.98;;;2.53;;
18501;SDS011;68437;52.236;5.710;2023-12-22T14:15:13;26.75;;;2.80;;
18501;SDS011;68437;52.236;5.710;2023-12-22T14:17:41;12.98;;;2.17;;
18501;SDS011;68437;52.236;5.710;2023-12-22T14:20:08;10.98;;;2.03;;
18501;SDS011;68437;52.236;5.710;2023-12-22T14:22:36;19.27;;;2.97;;
18501;SDS011;68437;52.236;5.710;2023-12-22T14:25:03;18.02;;;2.60;;
18501;SDS011;68437;52.236;5.710;2023-12-22T14:27:30;19.17;;;3.00;;
18501;SDS011;68437;52.236;5.710;2023-12-22T14:29:57;19.88;;;2.80;;
18501;SDS011;68437;52.236;5.710;2023-12-22T14:32:24;19.80;;;3.03;;
18501;SDS011;68437;52.236;5.710;2023-12-22T14:34:52;21.13;;;3.25;;
18501;SDS011;68437;52.236;5.710;2023-12-22T14:37:19;25.20;;;2.65;;
18501;SDS011;68437;52.236;5.710;2023-12-22T14:39:46;24.42;;;2.83;;